sensor_id;sensor_type;location;lat;lon;timestamp;P1;durP1;ratioP1;P2;durP2;ratioP2
63370;SDS011;49504;48.336;14.472;2023-06-19T00:01:16;4.20;;;2.35;;
63370;SDS011;49504;48.336;14.472;2023-06-19T00:04:37;4.95;;;2.63;;
63370;SDS011;49504;48.336;14.472;2023-06-19T00:07:58;4.63;;;2.70;;
63370;SDS011;49504;48.336;14.472;2023-06-19T00:11:19;5.30;;;2.85;;
63370;SDS011;49504;48.336;14.472;2023-06-19T00:14:41;4.45;;;2.50;;
63370;SDS011;49504;48.336;14.472;2023-06-19T00:18:03;4.78;;;2.72;;
63370;SDS011;49504;48.336;14.472;2023-06-19T00:21:24;5.35;;;2.80;;
63370;SDS011;49504;48.336;14.472;2023-06-19T00:24:46;5.28;;;3.38;;
63370;SDS011;49504;48.336;14.472;2023-06-19T00:28:07;4.90;;;2.72;;
63370;SDS011;49504;48.336;14.472;2023-06-19T00:31:29;4.85;;;2.28;;
63370;SDS011;49504;48.336;14.472;2023-06-19T00:34:51;4.57;;;2.85;;
63370;SDS011;49504;48.336;14.472;2023-06-19T00:38:12;4.50;;;2.70;;
63370;SDS011;49504;48.336;14.472;2023-06-19T00:41:34;5.45;;;2.55;;
63370;SDS011;49504;48.336;14.472;2023-06-19T00:44:56;5.05;;;2.67;;
63370;SDS011;49504;48.336;14.472;2023-06-19T00:48:17;4.50;;;2.53;;
63370;SDS011;49504;48.336;14.472;2023-06-19T00:51:40;4.22;;;2.53;;
63370;SDS011;49504;48.336;14.472;2023-06-19T00:55:01;4.55;;;2.55;;
63370;SDS011;49504;48.336;14.472;2023-06-19T00:58:24;4.30;;;2.45;;
63370;SDS011;49504;48.336;14.472;2023-06-19T01:01:45;4.75;;;2.58;;
63370;SDS011;49504;48.336;14.472;2023-06-19T01:05:07;4.80;;;2.40;;
63370;SDS011;49504;48.336;14.472;2023-06-19T01:08:37;4.70;;;2.63;;
63370;SDS011;49504;48.336;14.472;2023-06-19T01:12:10;5.43;;;2.95;;
63370;SDS011;49504;48.336;14.472;2023-06-19T01:15:37;4.35;;;2.67;;
63370;SDS011;49504;48.336;14.472;2023-06-19T01:19:20;4.50;;;2.58;;
63370;SDS011;49504;48.336;14.472;2023-06-19T01:22:43;5.28;;;2.83;;
63370;SDS011;49504;48.336;14.472;2023-06-19T01:26:04;4.30;;;2.40;;
63370;SDS011;49504;48.336;14.472;2023-06-19T01:29:25;5.07;;;2.67;;
63370;SDS011;49504;48.336;14.472;2023-06-19T01:32:48;7.00;;;2.78;;
63370;SDS011;49504;48.336;14.472;2023-06-19T01:36:15;4.72;;;2.42;;
63370;SDS011;49504;48.336;14.472;2023-06-19T01:39:41;4.20;;;2.50;;
63370;SDS011;49504;48.336;14.472;2023-06-19T01:43:05;4.90;;;2.55;;
63370;SDS011;49504;48.336;14.472;2023-06-19T01:46:27;4.47;;;2.33;;
63370;SDS011;49504;48.336;14.472;2023-06-19T01:49:49;5.13;;;2.70;;
63370;SDS011;49504;48.336;14.472;2023-06-19T01:53:10;4.18;;;2.30;;
63370;SDS011;49504;48.336;14.472;2023-06-19T01:56:33;4.45;;;2.50;;
63370;SDS011;49504;48.336;14.472;2023-06-19T01:59:55;5.10;;;2.72;;
63370;SDS011;49504;48.336;14.472;2023-06-19T02:03:16;4.60;;;2.60;;
63370;SDS011;49504;48.336;14.472;2023-06-19T02:06:37;5.18;;;2.60;;
63370;SDS011;49504;48.336;14.472;2023-06-19T02:09:58;4.63;;;2.70;;
63370;SDS011;49504;48.336;14.472;2023-06-19T02:13:21;4.55;;;2.47;;
63370;SDS011;49504;48.336;14.472;2023-06-19T02:16:42;4.50;;;2.60;;
63370;SDS011;49504;48.336;14.472;2023-06-19T02:20:04;4.38;;;2.30;;
63370;SDS011;49504;48.336;14.472;2023-06-19T02:23:26;4.53;;;2.40;;
63370;SDS011;49504;48.336;14.472;2023-06-19T02:26:47;4.38;;;2.47;;
63370;SDS011;49504;48.336;14.472;2023-06-19T02:30:10;5.47;;;3.05;;
63370;SDS011;49504;48.336;14.472;2023-06-19T02:33:32;4.20;;;2.38;;
63370;SDS011;49504;48.336;14.472;2023-06-19T02:36:53;4.75;;;2.53;;
63370;SDS011;49504;48.336;14.472;2023-06-19T02:40:14;4.97;;;2.47;;
63370;SDS011;49504;48.336;14.472;2023-06-19T02:43:36;4.43;;;2.70;;
63370;SDS011;49504;48.336;14.472;2023-06-19T02:46:58;4.75;;;3.00;;
63370;SDS011;49504;48.336;14.472;2023-06-19T02:50:19;4.90;;;2.55;;
63370;SDS011;49504;48.336;14.472;2023-06-19T02:53:41;5.35;;;2.53;;
63370;SDS011;49504;48.336;14.472;2023-06-19T02:57:03;4.50;;;2.40;;
63370;SDS011;49504;48.336;14.472;2023-06-19T03:00:26;5.47;;;3.17;;
63370;SDS011;49504;48.336;14.472;2023-06-19T03:03:48;6.43;;;2.78;;
63370;SDS011;49504;48.336;14.472;2023-06-19T03:07:09;5.60;;;2.72;;
63370;SDS011;49504;48.336;14.472;2023-06-19T03:10:32;4.55;;;2.78;;
63370;SDS011;49504;48.336;14.472;2023-06-19T03:13:54;4.20;;;2.42;;
63370;SDS011;49504;48.336;14.472;2023-06-19T03:17:16;5.05;;;2.80;;
63370;SDS011;49504;48.336;14.472;2023-06-19T03:20:39;4.80;;;2.53;;
63370;SDS011;49504;48.336;14.472;2023-06-19T03:24:00;4.88;;;2.80;;
63370;SDS011;49504;48.336;14.472;2023-06-19T03:27:22;5.18;;;2.70;;
63370;SDS011;49504;48.336;14.472;2023-06-19T03:30:43;4.57;;;2.30;;
63370;SDS011;49504;48.336;14.472;2023-06-19T03:34:04;5.65;;;3.20;;
63370;SDS011;49504;48.336;14.472;2023-06-19T03:37:28;4.95;;;2.97;;
63370;SDS011;49504;48.336;14.472;2023-06-19T03:40:49;6.88;;;3.28;;
63370;SDS011;49504;48.336;14.472;2023-06-19T03:44:10;5.15;;;2.95;;
63370;SDS011;49504;48.336;14.472;2023-06-19T03:47:32;4.78;;;2.95;;
63370;SDS011;49504;48.336;14.472;2023-06-19T03:50:53;5.28;;;2.83;;
63370;SDS011;49504;48.336;14.472;2023-06-19T03:54:16;5.88;;;2.95;;
63370;SDS011;49504;48.336;14.472;2023-06-19T03:57:37;5.28;;;2.90;;
63370;SDS011;49504;48.336;14.472;2023-06-19T04:02:38;5.72;;;3.00;;
63370;SDS011;49504;48.336;14.472;2023-06-19T04:05:59;4.32;;;2.67;;
63370;SDS011;49504;48.336;14.472;2023-06-19T04:09:20;5.50;;;3.00;;
63370;SDS011;49504;48.336;14.472;2023-06-19T04:12:42;5.18;;;3.00;;
63370;SDS011;49504;48.336;14.472;2023-06-19T04:16:04;6.88;;;2.83;;
63370;SDS011;49504;48.336;14.472;2023-06-19T04:19:27;4.60;;;2.70;;
63370;SDS011;49504;48.336;14.472;2023-06-19T04:22:48;4.90;;;2.88;;
63370;SDS011;49504;48.336;14.472;2023-06-19T04:26:10;5.55;;;2.85;;
63370;SDS011;49504;48.336;14.472;2023-06-19T04:29:31;5.50;;;3.03;;
63370;SDS011;49504;48.336;14.472;2023-06-19T04:32:52;4.85;;;2.90;;
63370;SDS011;49504;48.336;14.472;2023-06-19T04:36:15;4.88;;;2.67;;
63370;SDS011;49504;48.336;14.472;2023-06-19T04:39:36;5.22;;;3.03;;
63370;SDS011;49504;48.336;14.472;2023-06-19T04:42:57;9.50;;;4.40;;
63370;SDS011;49504;48.336;14.472;2023-06-19T04:46:19;12.55;;;4.53;;
63370;SDS011;49504;48.336;14.472;2023-06-19T04:49:40;16.35;;;4.95;;
63370;SDS011;49504;48.336;14.472;2023-06-19T04:53:03;12.40;;;4.22;;
63370;SDS011;49504;48.336;14.472;2023-06-19T04:56:24;12.23;;;4.93;;
63370;SDS011;49504;48.336;14.472;2023-06-19T04:59:45;11.73;;;4.03;;
63370;SDS011;49504;48.336;14.472;2023-06-19T05:03:06;9.73;;;4.70;;
63370;SDS011;49504;48.336;14.472;2023-06-19T05:06:27;8.82;;;4.00;;
63370;SDS011;49504;48.336;14.472;2023-06-19T05:09:50;7.75;;;3.90;;
63370;SDS011;49504;48.336;14.472;2023-06-19T05:13:11;10.48;;;4.88;;
63370;SDS011;49504;48.336;14.472;2023-06-19T05:16:33;9.25;;;4.65;;
63370;SDS011;49504;48.336;14.472;2023-06-19T05:19:54;6.90;;;3.47;;
63370;SDS011;49504;48.336;14.472;2023-06-19T05:23:15;8.55;;;4.03;;
63370;SDS011;49504;48.336;14.472;2023-06-19T05:26:38;8.07;;;4.00;;
63370;SDS011;49504;48.336;14.472;2023-06-19T05:29:59;10.55;;;4.13;;
63370;SDS011;49504;48.336;14.472;2023-06-19T05:33:20;8.48;;;4.07;;
63370;SDS011;49504;48.336;14.472;2023-06-19T05:36:41;10.25;;;4.18;;
63370;SDS011;49504;48.336;14.472;2023-06-19T05:40:42;9.45;;;3.78;;
63370;SDS011;49504;48.336;14.472;2023-06-19T05:44:03;9.30;;;4.65;;
63370;SDS011;49504;48.336;14.472;2023-06-19T05:47:24;7.18;;;4.10;;
63370;SDS011;49504;48.336;14.472;2023-06-19T05:50:45;7.47;;;3.55;;
63370;SDS011;49504;48.336;14.472;2023-06-19T05:54:06;6.22;;;3.55;;
63370;SDS011;49504;48.336;14.472;2023-06-19T05:57:29;8.40;;;4.25;;
63370;SDS011;49504;48.336;14.472;2023-06-19T06:00:50;6.75;;;3.42;;
63370;SDS011;49504;48.336;14.472;2023-06-19T06:04:11;7.72;;;3.88;;
63370;SDS011;49504;48.336;14.472;2023-06-19T06:07:32;9.57;;;4.05;;
63370;SDS011;49504;48.336;14.472;2023-06-19T06:10:53;7.80;;;4.30;;
63370;SDS011;49504;48.336;14.472;2023-06-19T06:14:16;8.15;;;3.97;;
63370;SDS011;49504;48.336;14.472;2023-06-19T06:17:37;9.02;;;3.80;;
63370;SDS011;49504;48.336;14.472;2023-06-19T06:20:58;6.38;;;3.60;;
63370;SDS011;49504;48.336;14.472;2023-06-19T06:24:19;8.50;;;4.40;;
63370;SDS011;49504;48.336;14.472;2023-06-19T06:27:40;8.57;;;3.78;;
63370;SDS011;49504;48.336;14.472;2023-06-19T06:31:03;6.70;;;3.67;;
63370;SDS011;49504;48.336;14.472;2023-06-19T06:34:24;8.65;;;3.35;;
63370;SDS011;49504;48.336;14.472;2023-06-19T06:37:45;7.78;;;4.05;;
63370;SDS011;49504;48.336;14.472;2023-06-19T06:41:06;6.60;;;4.07;;
63370;SDS011;49504;48.336;14.472;2023-06-19T06:44:27;6.43;;;3.90;;
63370;SDS011;49504;48.336;14.472;2023-06-19T06:47:50;6.45;;;3.70;;
63370;SDS011;49504;48.336;14.472;2023-06-19T06:51:11;5.97;;;3.55;;
63370;SDS011;49504;48.336;14.472;2023-06-19T06:54:32;9.15;;;4.35;;
63370;SDS011;49504;48.336;14.472;2023-06-19T06:57:53;7.15;;;3.75;;
63370;SDS011;49504;48.336;14.472;2023-06-19T07:01:14;5.85;;;3.30;;
63370;SDS011;49504;48.336;14.472;2023-06-19T07:04:37;8.07;;;3.92;;
63370;SDS011;49504;48.336;14.472;2023-06-19T07:07:58;6.15;;;3.70;;
63370;SDS011;49504;48.336;14.472;2023-06-19T07:11:19;7.05;;;3.60;;
63370;SDS011;49504;48.336;14.472;2023-06-19T07:14:40;8.85;;;4.07;;
63370;SDS011;49504;48.336;14.472;2023-06-19T07:18:01;7.15;;;3.25;;
63370;SDS011;49504;48.336;14.472;2023-06-19T07:21:24;8.35;;;3.75;;
63370;SDS011;49504;48.336;14.472;2023-06-19T07:24:48;7.07;;;3.70;;
63370;SDS011;49504;48.336;14.472;2023-06-19T07:28:09;6.10;;;3.08;;
63370;SDS011;49504;48.336;14.472;2023-06-19T07:31:30;6.45;;;3.40;;
63370;SDS011;49504;48.336;14.472;2023-06-19T07:34:51;5.80;;;3.55;;
63370;SDS011;49504;48.336;14.472;2023-06-19T07:38:14;6.97;;;3.55;;
63370;SDS011;49504;48.336;14.472;2023-06-19T07:41:35;5.95;;;3.38;;
63370;SDS011;49504;48.336;14.472;2023-06-19T07:44:57;6.18;;;3.00;;
63370;SDS011;49504;48.336;14.472;2023-06-19T07:48:18;5.78;;;3.03;;
63370;SDS011;49504;48.336;14.472;2023-06-19T07:51:39;6.22;;;3.20;;
63370;SDS011;49504;48.336;14.472;2023-06-19T07:55:01;5.95;;;3.20;;
63370;SDS011;49504;48.336;14.472;2023-06-19T07:58:23;6.82;;;3.63;;
63370;SDS011;49504;48.336;14.472;2023-06-19T08:01:44;6.55;;;3.90;;
63370;SDS011;49504;48.336;14.472;2023-06-19T08:05:06;6.65;;;3.58;;
63370;SDS011;49504;48.336;14.472;2023-06-19T08:08:29;8.50;;;4.00;;
63370;SDS011;49504;48.336;14.472;2023-06-19T08:11:51;8.07;;;3.63;;
63370;SDS011;49504;48.336;14.472;2023-06-19T08:15:12;6.53;;;3.70;;
63370;SDS011;49504;48.336;14.472;2023-06-19T08:18:34;6.32;;;3.55;;
63370;SDS011;49504;48.336;14.472;2023-06-19T08:21:55;6.22;;;3.70;;
63370;SDS011;49504;48.336;14.472;2023-06-19T08:25:16;7.30;;;3.92;;
63370;SDS011;49504;48.336;14.472;2023-06-19T08:28:38;6.80;;;3.50;;
63370;SDS011;49504;48.336;14.472;2023-06-19T08:32:00;6.10;;;3.47;;
63370;SDS011;49504;48.336;14.472;2023-06-19T08:35:21;6.60;;;3.67;;
63370;SDS011;49504;48.336;14.472;2023-06-19T08:38:42;6.55;;;3.80;;
63370;SDS011;49504;48.336;14.472;2023-06-19T08:42:03;6.57;;;3.58;;
63370;SDS011;49504;48.336;14.472;2023-06-19T08:45:28;5.93;;;3.50;;
63370;SDS011;49504;48.336;14.472;2023-06-19T08:48:49;7.07;;;3.95;;
63370;SDS011;49504;48.336;14.472;2023-06-19T08:52:10;6.53;;;3.13;;
63370;SDS011;49504;48.336;14.472;2023-06-19T08:55:31;5.57;;;2.78;;
63370;SDS011;49504;48.336;14.472;2023-06-19T08:58:53;6.38;;;3.10;;
63370;SDS011;49504;48.336;14.472;2023-06-19T09:02:15;5.63;;;3.40;;
63370;SDS011;49504;48.336;14.472;2023-06-19T09:05:36;6.65;;;3.55;;
63370;SDS011;49504;48.336;14.472;2023-06-19T09:09:01;6.10;;;3.42;;
63370;SDS011;49504;48.336;14.472;2023-06-19T09:12:25;6.43;;;3.38;;
63370;SDS011;49504;48.336;14.472;2023-06-19T09:15:58;6.93;;;3.58;;
63370;SDS011;49504;48.336;14.472;2023-06-19T09:19:23;5.38;;;2.97;;
63370;SDS011;49504;48.336;14.472;2023-06-19T09:22:44;6.45;;;3.85;;
63370;SDS011;49504;48.336;14.472;2023-06-19T09:26:05;7.05;;;3.78;;
63370;SDS011;49504;48.336;14.472;2023-06-19T09:29:28;5.43;;;3.47;;
63370;SDS011;49504;48.336;14.472;2023-06-19T09:32:49;7.15;;;3.63;;
63370;SDS011;49504;48.336;14.472;2023-06-19T09:36:12;5.93;;;3.67;;
63370;SDS011;49504;48.336;14.472;2023-06-19T09:39:34;6.85;;;3.38;;
63370;SDS011;49504;48.336;14.472;2023-06-19T09:42:57;6.18;;;3.80;;
63370;SDS011;49504;48.336;14.472;2023-06-19T09:46:24;6.70;;;3.25;;
63370;SDS011;49504;48.336;14.472;2023-06-19T09:49:53;7.18;;;3.92;;
63370;SDS011;49504;48.336;14.472;2023-06-19T09:53:16;5.78;;;3.45;;
63370;SDS011;49504;48.336;14.472;2023-06-19T09:56:39;6.15;;;3.85;;
63370;SDS011;49504;48.336;14.472;2023-06-19T10:00:01;6.30;;;3.88;;
63370;SDS011;49504;48.336;14.472;2023-06-19T10:03:32;5.93;;;3.88;;
63370;SDS011;49504;48.336;14.472;2023-06-19T10:06:55;7.00;;;4.20;;
63370;SDS011;49504;48.336;14.472;2023-06-19T10:10:23;5.90;;;3.78;;
63370;SDS011;49504;48.336;14.472;2023-06-19T10:13:45;6.63;;;3.65;;
63370;SDS011;49504;48.336;14.472;2023-06-19T10:17:08;6.00;;;3.63;;
63370;SDS011;49504;48.336;14.472;2023-06-19T10:20:30;5.72;;;3.53;;
63370;SDS011;49504;48.336;14.472;2023-06-19T10:23:53;7.35;;;3.97;;
63370;SDS011;49504;48.336;14.472;2023-06-19T10:27:21;6.07;;;3.20;;
63370;SDS011;49504;48.336;14.472;2023-06-19T10:30:43;5.75;;;3.10;;
63370;SDS011;49504;48.336;14.472;2023-06-19T10:34:05;5.95;;;3.75;;
63370;SDS011;49504;48.336;14.472;2023-06-19T10:37:32;6.07;;;3.70;;
63370;SDS011;49504;48.336;14.472;2023-06-19T10:41:24;5.05;;;3.22;;
63370;SDS011;49504;48.336;14.472;2023-06-19T10:44:46;6.60;;;3.78;;
63370;SDS011;49504;48.336;14.472;2023-06-19T10:48:08;7.20;;;3.58;;
63370;SDS011;49504;48.336;14.472;2023-06-19T10:51:29;7.40;;;4.28;;
63370;SDS011;49504;48.336;14.472;2023-06-19T10:54:52;5.68;;;3.60;;
63370;SDS011;49504;48.336;14.472;2023-06-19T10:59:00;6.32;;;4.20;;
63370;SDS011;49504;48.336;14.472;2023-06-19T11:02:23;7.05;;;4.28;;
63370;SDS011;49504;48.336;14.472;2023-06-19T11:05:44;6.57;;;4.50;;
63370;SDS011;49504;48.336;14.472;2023-06-19T11:09:06;5.18;;;4.03;;
63370;SDS011;49504;48.336;14.472;2023-06-19T11:12:29;6.20;;;3.95;;
63370;SDS011;49504;48.336;14.472;2023-06-19T11:15:52;6.18;;;3.80;;
63370;SDS011;49504;48.336;14.472;2023-06-19T11:19:15;8.38;;;4.38;;
63370;SDS011;49504;48.336;14.472;2023-06-19T11:22:38;6.13;;;3.90;;
63370;SDS011;49504;48.336;14.472;2023-06-19T11:26:02;7.70;;;3.97;;
63370;SDS011;49504;48.336;14.472;2023-06-19T11:29:24;7.68;;;4.13;;
63370;SDS011;49504;48.336;14.472;2023-06-19T11:32:50;6.93;;;4.22;;
63370;SDS011;49504;48.336;14.472;2023-06-19T11:36:11;7.57;;;4.32;;
63370;SDS011;49504;48.336;14.472;2023-06-19T11:39:32;10.05;;;6.75;;
63370;SDS011;49504;48.336;14.472;2023-06-19T11:42:54;21.90;;;14.63;;
63370;SDS011;49504;48.336;14.472;2023-06-19T11:46:15;20.17;;;12.25;;
63370;SDS011;49504;48.336;14.472;2023-06-19T11:49:38;13.52;;;9.55;;
63370;SDS011;49504;48.336;14.472;2023-06-19T11:53:01;11.15;;;7.53;;
63370;SDS011;49504;48.336;14.472;2023-06-19T11:56:23;10.90;;;6.70;;
63370;SDS011;49504;48.336;14.472;2023-06-19T11:59:47;7.65;;;5.55;;
63370;SDS011;49504;48.336;14.472;2023-06-19T12:03:21;7.85;;;5.60;;
63370;SDS011;49504;48.336;14.472;2023-06-19T12:06:43;8.35;;;5.68;;
63370;SDS011;49504;48.336;14.472;2023-06-19T12:10:05;7.20;;;5.22;;
63370;SDS011;49504;48.336;14.472;2023-06-19T12:13:29;7.40;;;5.45;;
63370;SDS011;49504;48.336;14.472;2023-06-19T12:16:52;8.57;;;4.97;;
63370;SDS011;49504;48.336;14.472;2023-06-19T12:20:13;8.65;;;4.90;;
63370;SDS011;49504;48.336;14.472;2023-06-19T12:23:36;7.65;;;5.22;;
63370;SDS011;49504;48.336;14.472;2023-06-19T12:26:57;7.63;;;5.30;;
63370;SDS011;49504;48.336;14.472;2023-06-19T12:30:18;8.38;;;5.15;;
63370;SDS011;49504;48.336;14.472;2023-06-19T12:33:39;6.97;;;4.85;;
63370;SDS011;49504;48.336;14.472;2023-06-19T12:37:01;8.40;;;5.00;;
63370;SDS011;49504;48.336;14.472;2023-06-19T12:40:24;8.27;;;5.07;;
63370;SDS011;49504;48.336;14.472;2023-06-19T12:43:45;6.95;;;4.28;;
63370;SDS011;49504;48.336;14.472;2023-06-19T12:47:07;8.35;;;5.07;;
63370;SDS011;49504;48.336;14.472;2023-06-19T12:50:29;7.32;;;4.40;;
63370;SDS011;49504;48.336;14.472;2023-06-19T12:53:50;6.75;;;4.50;;
63370;SDS011;49504;48.336;14.472;2023-06-19T12:57:13;8.23;;;4.55;;
63370;SDS011;49504;48.336;14.472;2023-06-19T13:00:35;8.75;;;4.68;;
63370;SDS011;49504;48.336;14.472;2023-06-19T13:03:57;6.85;;;3.90;;
63370;SDS011;49504;48.336;14.472;2023-06-19T13:07:18;8.15;;;4.20;;
63370;SDS011;49504;48.336;14.472;2023-06-19T13:10:39;7.28;;;4.47;;
63370;SDS011;49504;48.336;14.472;2023-06-19T13:14:01;7.97;;;4.65;;
63370;SDS011;49504;48.336;14.472;2023-06-19T13:17:25;7.55;;;4.68;;
63370;SDS011;49504;48.336;14.472;2023-06-19T13:20:46;7.13;;;4.43;;
63370;SDS011;49504;48.336;14.472;2023-06-19T13:24:07;7.00;;;4.28;;
63370;SDS011;49504;48.336;14.472;2023-06-19T13:27:28;7.47;;;4.75;;
63370;SDS011;49504;48.336;14.472;2023-06-19T13:30:51;7.32;;;4.50;;
63370;SDS011;49504;48.336;14.472;2023-06-19T13:34:13;6.25;;;4.35;;
63370;SDS011;49504;48.336;14.472;2023-06-19T13:37:36;6.63;;;4.32;;
63370;SDS011;49504;48.336;14.472;2023-06-19T13:40:58;7.43;;;4.55;;
63370;SDS011;49504;48.336;14.472;2023-06-19T13:44:19;8.52;;;4.75;;
63370;SDS011;49504;48.336;14.472;2023-06-19T13:47:42;6.43;;;4.35;;
63370;SDS011;49504;48.336;14.472;2023-06-19T13:51:05;7.18;;;4.68;;
63370;SDS011;49504;48.336;14.472;2023-06-19T13:54:27;6.77;;;4.47;;
63370;SDS011;49504;48.336;14.472;2023-06-19T13:57:49;7.88;;;4.40;;
63370;SDS011;49504;48.336;14.472;2023-06-19T14:01:10;6.97;;;4.25;;
63370;SDS011;49504;48.336;14.472;2023-06-19T14:04:32;6.63;;;4.05;;
63370;SDS011;49504;48.336;14.472;2023-06-19T14:07:54;6.03;;;4.20;;
63370;SDS011;49504;48.336;14.472;2023-06-19T14:11:15;7.38;;;4.63;;
63370;SDS011;49504;48.336;14.472;2023-06-19T14:14:37;7.03;;;4.20;;
63370;SDS011;49504;48.336;14.472;2023-06-19T14:17:58;7.32;;;4.95;;
63370;SDS011;49504;48.336;14.472;2023-06-19T14:21:20;6.57;;;4.32;;
63370;SDS011;49504;48.336;14.472;2023-06-19T14:24:42;9.45;;;4.40;;
63370;SDS011;49504;48.336;14.472;2023-06-19T14:28:05;7.65;;;4.75;;
63370;SDS011;49504;48.336;14.472;2023-06-19T14:34:28;7.30;;;4.13;;
63370;SDS011;49504;48.336;14.472;2023-06-19T14:37:49;6.97;;;3.58;;
63370;SDS011;49504;48.336;14.472;2023-06-19T14:41:10;6.78;;;4.35;;
63370;SDS011;49504;48.336;14.472;2023-06-19T14:44:32;6.55;;;4.25;;
63370;SDS011;49504;48.336;14.472;2023-06-19T14:47:53;7.05;;;3.95;;
63370;SDS011;49504;48.336;14.472;2023-06-19T14:51:15;5.55;;;3.70;;
63370;SDS011;49504;48.336;14.472;2023-06-19T14:54:36;6.82;;;4.05;;
63370;SDS011;49504;48.336;14.472;2023-06-19T14:57:58;6.68;;;4.88;;
63370;SDS011;49504;48.336;14.472;2023-06-19T15:01:19;7.43;;;4.90;;
63370;SDS011;49504;48.336;14.472;2023-06-19T15:04:45;6.05;;;4.00;;
63370;SDS011;49504;48.336;14.472;2023-06-19T15:08:08;7.65;;;4.60;;
63370;SDS011;49504;48.336;14.472;2023-06-19T15:11:29;6.85;;;4.35;;
63370;SDS011;49504;48.336;14.472;2023-06-19T15:14:50;6.68;;;4.18;;
63370;SDS011;49504;48.336;14.472;2023-06-19T15:18:11;7.15;;;3.90;;
63370;SDS011;49504;48.336;14.472;2023-06-19T15:21:33;6.55;;;3.90;;
63370;SDS011;49504;48.336;14.472;2023-06-19T15:24:55;6.38;;;3.58;;
63370;SDS011;49504;48.336;14.472;2023-06-19T15:28:16;6.75;;;3.72;;
63370;SDS011;49504;48.336;14.472;2023-06-19T15:31:37;6.38;;;3.67;;
63370;SDS011;49504;48.336;14.472;2023-06-19T15:34:59;7.15;;;4.28;;
63370;SDS011;49504;48.336;14.472;2023-06-19T15:38:20;6.70;;;4.07;;
63370;SDS011;49504;48.336;14.472;2023-06-19T15:41:43;6.57;;;4.38;;
63370;SDS011;49504;48.336;14.472;2023-06-19T15:45:05;6.22;;;3.40;;
63370;SDS011;49504;48.336;14.472;2023-06-19T15:48:28;7.25;;;4.07;;
63370;SDS011;49504;48.336;14.472;2023-06-19T15:51:52;6.55;;;4.07;;
63370;SDS011;49504;48.336;14.472;2023-06-19T15:55:14;7.40;;;4.13;;
63370;SDS011;49504;48.336;14.472;2023-06-19T15:58:36;6.32;;;4.05;;
63370;SDS011;49504;48.336;14.472;2023-06-19T16:01:58;7.43;;;4.18;;
63370;SDS011;49504;48.336;14.472;2023-06-19T16:05:19;6.43;;;3.88;;
63370;SDS011;49504;48.336;14.472;2023-06-19T16:08:44;6.53;;;4.32;;
63370;SDS011;49504;48.336;14.472;2023-06-19T17:23:29;6.60;;;3.53;;
63370;SDS011;49504;48.336;14.472;2023-06-19T17:26:53;6.55;;;4.10;;
63370;SDS011;49504;48.336;14.472;2023-06-19T17:30:14;6.10;;;3.90;;
63370;SDS011;49504;48.336;14.472;2023-06-19T17:33:35;7.15;;;3.63;;
63370;SDS011;49504;48.336;14.472;2023-06-19T17:36:57;6.20;;;3.50;;
63370;SDS011;49504;48.336;14.472;2023-06-19T17:40:19;6.60;;;3.60;;
63370;SDS011;49504;48.336;14.472;2023-06-19T17:43:40;7.75;;;3.70;;
63370;SDS011;49504;48.336;14.472;2023-06-19T17:47:02;6.00;;;3.72;;
63370;SDS011;49504;48.336;14.472;2023-06-19T17:50:25;6.22;;;3.80;;
63370;SDS011;49504;48.336;14.472;2023-06-19T17:53:48;5.72;;;3.90;;
63370;SDS011;49504;48.336;14.472;2023-06-19T17:57:10;6.45;;;3.22;;
63370;SDS011;49504;48.336;14.472;2023-06-19T18:00:31;5.82;;;3.67;;
63370;SDS011;49504;48.336;14.472;2023-06-19T18:03:53;6.82;;;3.90;;
63370;SDS011;49504;48.336;14.472;2023-06-19T18:07:14;6.25;;;3.85;;
63370;SDS011;49504;48.336;14.472;2023-06-19T18:10:35;6.53;;;4.28;;
63370;SDS011;49504;48.336;14.472;2023-06-19T18:13:58;6.47;;;3.70;;
63370;SDS011;49504;48.336;14.472;2023-06-19T18:17:20;6.95;;;4.20;;
63370;SDS011;49504;48.336;14.472;2023-06-19T18:20:42;5.43;;;3.45;;
63370;SDS011;49504;48.336;14.472;2023-06-19T18:24:05;6.38;;;3.97;;
63370;SDS011;49504;48.336;14.472;2023-06-19T18:27:26;6.38;;;3.75;;
63370;SDS011;49504;48.336;14.472;2023-06-19T18:30:49;6.95;;;3.80;;
63370;SDS011;49504;48.336;14.472;2023-06-19T18:34:10;6.57;;;3.53;;
63370;SDS011;49504;48.336;14.472;2023-06-19T18:37:31;5.32;;;3.47;;
63370;SDS011;49504;48.336;14.472;2023-06-19T18:40:52;7.53;;;4.03;;
63370;SDS011;49504;48.336;14.472;2023-06-19T18:44:13;10.98;;;3.83;;
63370;SDS011;49504;48.336;14.472;2023-06-19T18:47:36;6.43;;;3.88;;
63370;SDS011;49504;48.336;14.472;2023-06-19T18:50:58;7.10;;;3.88;;
63370;SDS011;49504;48.336;14.472;2023-06-19T18:54:19;6.07;;;3.42;;
63370;SDS011;49504;48.336;14.472;2023-06-19T18:57:40;5.95;;;3.67;;
63370;SDS011;49504;48.336;14.472;2023-06-19T19:01:02;5.22;;;3.20;;
63370;SDS011;49504;48.336;14.472;2023-06-19T19:04:24;7.43;;;4.00;;
63370;SDS011;49504;48.336;14.472;2023-06-19T19:07:45;6.32;;;3.90;;
63370;SDS011;49504;48.336;14.472;2023-06-19T19:11:07;6.07;;;3.97;;
63370;SDS011;49504;48.336;14.472;2023-06-19T19:14:28;9.63;;;3.50;;
63370;SDS011;49504;48.336;14.472;2023-06-19T19:17:49;6.38;;;3.78;;
63370;SDS011;49504;48.336;14.472;2023-06-19T19:21:11;6.65;;;3.50;;
63370;SDS011;49504;48.336;14.472;2023-06-19T19:24:33;8.82;;;3.78;;
63370;SDS011;49504;48.336;14.472;2023-06-19T19:27:54;7.05;;;3.72;;
63370;SDS011;49504;48.336;14.472;2023-06-19T19:31:15;6.32;;;3.40;;
63370;SDS011;49504;48.336;14.472;2023-06-19T19:34:36;6.93;;;3.35;;
63370;SDS011;49504;48.336;14.472;2023-06-19T19:37:58;7.97;;;3.67;;
63370;SDS011;49504;48.336;14.472;2023-06-19T19:41:19;5.97;;;3.75;;
63370;SDS011;49504;48.336;14.472;2023-06-19T19:44:41;6.72;;;3.78;;
63370;SDS011;49504;48.336;14.472;2023-06-19T19:48:02;8.20;;;4.07;;
63370;SDS011;49504;48.336;14.472;2023-06-19T19:51:23;6.45;;;3.50;;
63370;SDS011;49504;48.336;14.472;2023-06-19T19:54:45;6.88;;;3.58;;
63370;SDS011;49504;48.336;14.472;2023-06-19T19:58:07;5.88;;;3.83;;
63370;SDS011;49504;48.336;14.472;2023-06-19T20:01:28;5.90;;;3.40;;
63370;SDS011;49504;48.336;14.472;2023-06-19T20:04:49;6.57;;;4.15;;
63370;SDS011;49504;48.336;14.472;2023-06-19T20:10:18;6.07;;;3.55;;
63370;SDS011;49504;48.336;14.472;2023-06-19T20:13:39;6.80;;;3.63;;
63370;SDS011;49504;48.336;14.472;2023-06-19T20:17:00;6.35;;;3.95;;
63370;SDS011;49504;48.336;14.472;2023-06-19T20:21:26;5.40;;;3.38;;
63370;SDS011;49504;48.336;14.472;2023-06-19T20:24:47;7.22;;;3.50;;
63370;SDS011;49504;48.336;14.472;2023-06-19T20:28:09;7.43;;;3.50;;
63370;SDS011;49504;48.336;14.472;2023-06-19T20:33:17;8.73;;;4.30;;
63370;SDS011;49504;48.336;14.472;2023-06-19T20:36:38;5.95;;;3.88;;
63370;SDS011;49504;48.336;14.472;2023-06-19T20:39:59;7.85;;;3.88;;
63370;SDS011;49504;48.336;14.472;2023-06-19T20:43:21;5.93;;;3.45;;
63370;SDS011;49504;48.336;14.472;2023-06-19T20:46:42;6.82;;;3.95;;
63370;SDS011;49504;48.336;14.472;2023-06-19T20:50:06;6.90;;;3.80;;
63370;SDS011;49504;48.336;14.472;2023-06-19T20:53:27;5.80;;;3.88;;
63370;SDS011;49504;48.336;14.472;2023-06-19T20:56:49;7.10;;;3.67;;
63370;SDS011;49504;48.336;14.472;2023-06-19T21:00:10;6.10;;;3.13;;
63370;SDS011;49504;48.336;14.472;2023-06-19T21:03:32;7.18;;;3.45;;
63370;SDS011;49504;48.336;14.472;2023-06-19T21:06:55;7.88;;;3.70;;
63370;SDS011;49504;48.336;14.472;2023-06-19T21:10:17;5.32;;;3.53;;
63370;SDS011;49504;48.336;14.472;2023-06-19T21:13:38;6.75;;;3.55;;
63370;SDS011;49504;48.336;14.472;2023-06-19T21:16:59;5.40;;;3.10;;
63370;SDS011;49504;48.336;14.472;2023-06-19T21:20:20;5.57;;;3.78;;